createdAt,value
2017-06-25T00:00:17.596Z,5.40
2017-06-25T00:02:44.266Z,5.30
2017-06-25T00:05:10.942Z,5.45
2017-06-25T00:07:37.608Z,4.82
2017-06-25T00:10:04.279Z,5.07
2017-06-25T00:12:30.967Z,5.32
2017-06-25T00:14:57.633Z,4.80
2017-06-25T00:17:24.336Z,4.78
2017-06-25T00:19:51.008Z,5.15
2017-06-25T00:22:17.702Z,4.70
2017-06-25T00:24:44.364Z,5.22
2017-06-25T00:27:11.057Z,4.70
2017-06-25T00:29:37.730Z,4.60
2017-06-25T00:32:04.436Z,5.60
2017-06-25T00:34:31.119Z,5.28
2017-06-25T00:36:57.781Z,5.43
2017-06-25T00:39:24.453Z,6.25
2017-06-25T00:41:51.124Z,5.40
2017-06-25T00:44:17.820Z,5.68
2017-06-25T00:46:44.501Z,5.65
2017-06-25T00:49:11.195Z,5.57
2017-06-25T00:51:37.860Z,5.82
2017-06-25T00:54:10.295Z,6.20
2017-06-25T00:56:36.956Z,6.20
2017-06-25T00:59:03.668Z,7.12
2017-06-25T01:01:30.337Z,6.75
2017-06-25T01:03:57.031Z,6.50
2017-06-25T01:06:23.696Z,7.25
2017-06-25T01:08:50.391Z,7.40
2017-06-25T01:11:17.072Z,6.72
2017-06-25T01:13:43.744Z,6.50
2017-06-25T01:16:10.419Z,6.68
2017-06-25T01:18:37.085Z,6.60
2017-06-25T01:21:03.786Z,6.47
2017-06-25T01:23:30.448Z,6.28
2017-06-25T01:25:57.135Z,6.22
2017-06-25T01:28:23.804Z,6.72
2017-06-25T01:30:50.499Z,6.90
2017-06-25T01:33:17.172Z,6.75
2017-06-25T01:35:43.879Z,6.80
2017-06-25T01:38:10.553Z,7.25
2017-06-25T01:40:37.225Z,7.40
2017-06-25T01:43:03.892Z,6.80
2017-06-25T01:45:30.559Z,6.28
2017-06-25T01:47:57.223Z,7.00
2017-06-25T01:50:23.887Z,8.40
2017-06-25T01:52:50.580Z,8.10
2017-06-25T01:55:17.253Z,8.98
2017-06-25T01:57:43.949Z,9.30
2017-06-25T02:00:10.625Z,9.50
2017-06-25T02:02:37.324Z,9.70
2017-06-25T02:05:04.000Z,10.43
2017-06-25T02:07:30.692Z,10.55
2017-06-25T02:09:57.384Z,11.10
2017-06-25T02:12:24.053Z,10.93
2017-06-25T02:14:50.735Z,11.95
2017-06-25T02:17:17.411Z,10.70
2017-06-25T02:19:44.132Z,11.95
2017-06-25T02:22:10.804Z,11.77
2017-06-25T02:24:37.500Z,12.25
2017-06-25T02:27:04.177Z,12.27
2017-06-25T02:29:30.856Z,13.15
2017-06-25T02:32:30.468Z,13.00
2017-06-25T02:34:57.149Z,12.32
2017-06-25T02:37:23.823Z,13.50
2017-06-25T02:39:50.501Z,13.55
2017-06-25T02:42:17.208Z,13.52
2017-06-25T02:44:43.895Z,14.45
2017-06-25T02:47:10.605Z,14.00
2017-06-25T02:49:37.281Z,15.60
2017-06-25T02:52:03.988Z,13.82
2017-06-25T02:54:30.686Z,15.77
2017-06-25T02:56:57.396Z,15.30
2017-06-25T02:59:24.076Z,14.20
2017-06-25T03:01:50.760Z,15.10
2017-06-25T03:04:17.435Z,16.50
2017-06-25T03:06:44.119Z,16.75
2017-06-25T03:09:16.585Z,16.45
2017-06-25T03:11:43.274Z,17.40
2017-06-25T03:14:09.976Z,16.50
2017-06-25T03:16:36.657Z,16.08
2017-06-25T03:19:03.370Z,16.70
2017-06-25T03:21:30.044Z,19.55
2017-06-25T03:23:56.717Z,19.00
2017-06-25T03:26:23.408Z,17.80
2017-06-25T03:28:50.093Z,18.87
2017-06-25T03:31:16.774Z,19.58
2017-06-25T03:33:43.452Z,20.60
2017-06-25T03:36:10.131Z,19.70
2017-06-25T03:38:36.804Z,21.15
2017-06-25T03:41:03.513Z,20.42
2017-06-25T03:43:30.191Z,19.35
2017-06-25T03:45:56.868Z,19.02
2017-06-25T03:48:23.545Z,20.42
2017-06-25T03:50:50.240Z,21.83
2017-06-25T03:53:16.917Z,19.80
2017-06-25T03:55:43.608Z,21.73
2017-06-25T03:58:10.288Z,21.12
2017-06-25T04:00:36.957Z,20.60
2017-06-25T04:03:03.663Z,22.42
2017-06-25T04:05:30.361Z,19.98
2017-06-25T04:07:57.040Z,20.20
2017-06-25T04:10:23.714Z,20.62
2017-06-25T04:12:50.392Z,19.20
2017-06-25T04:15:17.072Z,21.25
2017-06-25T04:17:43.748Z,18.90
2017-06-25T04:20:10.418Z,18.58
2017-06-25T04:22:37.096Z,20.45
2017-06-25T04:25:03.804Z,19.73
2017-06-25T04:27:30.491Z,18.30
2017-06-25T04:29:57.203Z,17.90
2017-06-25T04:32:23.880Z,18.75
2017-06-25T04:34:50.561Z,18.05
2017-06-25T04:37:17.233Z,16.75
2017-06-25T04:39:43.925Z,17.58
2017-06-25T04:42:10.615Z,16.17
2017-06-25T04:44:37.293Z,14.85
2017-06-25T04:47:03.999Z,15.25
2017-06-25T04:49:30.682Z,15.48
2017-06-25T04:51:57.356Z,15.95
2017-06-25T04:54:24.027Z,15.55
2017-06-25T04:56:50.727Z,15.00
2017-06-25T04:59:17.399Z,15.43
2017-06-25T05:01:44.096Z,16.50
2017-06-25T05:04:10.771Z,15.48
2017-06-25T05:06:37.448Z,16.85
2017-06-25T05:09:04.129Z,15.73
2017-06-25T05:11:30.808Z,18.52
2017-06-25T05:13:57.496Z,18.10
2017-06-25T05:16:24.169Z,20.33
2017-06-25T05:18:50.843Z,18.25
2017-06-25T05:21:17.519Z,20.98
2017-06-25T05:23:44.192Z,19.70
2017-06-25T05:26:10.873Z,22.15
2017-06-25T05:28:37.561Z,20.42
2017-06-25T05:31:04.247Z,19.92
2017-06-25T05:33:30.965Z,20.05
2017-06-25T05:35:57.632Z,18.33
2017-06-25T05:38:24.331Z,19.60
2017-06-25T05:40:51.013Z,17.85
2017-06-25T05:43:17.695Z,17.92
2017-06-25T05:45:44.376Z,16.60
2017-06-25T05:48:11.047Z,16.40
2017-06-25T05:50:37.724Z,17.20
2017-06-25T05:53:04.395Z,15.85
2017-06-25T05:55:31.081Z,15.40
2017-06-25T05:57:57.753Z,15.50
2017-06-25T06:00:24.435Z,15.00
2017-06-25T06:02:51.124Z,14.98
2017-06-25T06:05:17.828Z,14.95
2017-06-25T06:07:44.518Z,12.43
2017-06-25T06:10:11.199Z,12.63
2017-06-25T06:12:37.887Z,12.85
2017-06-25T06:15:04.577Z,11.95
2017-06-25T06:17:31.260Z,11.12
2017-06-25T06:19:57.944Z,9.65
2017-06-25T06:22:24.624Z,10.57
2017-06-25T06:24:51.315Z,10.15
2017-06-25T06:27:17.985Z,9.40
2017-06-25T06:29:44.667Z,9.63
2017-06-25T06:32:11.355Z,8.68
2017-06-25T06:34:38.025Z,9.95
2017-06-25T06:37:04.735Z,8.80
2017-06-25T06:39:31.402Z,8.77
2017-06-25T06:41:58.104Z,8.50
2017-06-25T06:44:24.778Z,8.15
2017-06-25T06:46:51.449Z,8.85
2017-06-25T06:49:18.115Z,8.60
2017-06-25T06:51:44.787Z,8.32
2017-06-25T06:54:11.489Z,9.45
2017-06-25T06:56:38.169Z,8.35
2017-06-25T06:59:04.865Z,9.45
2017-06-25T07:01:31.557Z,8.90
2017-06-25T07:03:58.264Z,9.20
2017-06-25T07:06:24.961Z,8.15
2017-06-25T07:08:51.657Z,8.60
2017-06-25T07:11:18.326Z,8.17
2017-06-25T07:13:45.032Z,7.53
2017-06-25T07:16:11.703Z,8.00
2017-06-25T07:18:38.368Z,8.70
2017-06-25T07:21:05.048Z,7.70
2017-06-25T07:23:31.721Z,7.53
2017-06-25T07:25:58.384Z,8.23
2017-06-25T07:28:25.055Z,7.77
2017-06-25T07:30:51.747Z,8.40
2017-06-25T07:33:18.427Z,8.30
2017-06-25T07:35:45.123Z,8.57
2017-06-25T07:38:11.796Z,8.13
2017-06-25T07:40:38.483Z,8.97
2017-06-25T07:43:05.153Z,8.20
2017-06-25T07:45:31.844Z,8.27
2017-06-25T07:47:58.509Z,8.20
2017-06-25T07:50:25.168Z,7.90
2017-06-25T07:52:51.832Z,7.17
2017-06-25T07:55:18.491Z,8.00
2017-06-25T07:57:45.185Z,8.57
2017-06-25T08:00:11.855Z,8.30
2017-06-25T08:02:38.552Z,9.17
2017-06-25T08:05:05.227Z,8.83
2017-06-25T08:07:31.923Z,8.07
2017-06-25T08:09:58.595Z,9.17
2017-06-25T08:12:25.261Z,9.40
2017-06-25T08:14:51.928Z,8.93
2017-06-25T08:17:18.599Z,9.40
2017-06-25T08:19:45.288Z,9.67
2017-06-25T08:22:11.964Z,10.63
2017-06-25T08:24:38.688Z,10.77
2017-06-25T08:27:05.365Z,10.17
2017-06-25T08:29:32.037Z,11.30
2017-06-25T08:31:58.704Z,9.77
2017-06-25T08:34:25.380Z,10.73
2017-06-25T08:36:52.068Z,10.90
2017-06-25T08:39:18.749Z,11.60
2017-06-25T08:41:45.460Z,10.38
2017-06-25T08:44:12.142Z,9.90
2017-06-25T08:46:38.864Z,10.88
2017-06-25T08:49:05.539Z,9.80
2017-06-25T08:51:32.243Z,9.63
2017-06-25T08:53:58.920Z,10.20
2017-06-25T08:56:25.594Z,9.60
2017-06-25T08:58:52.280Z,11.60
2017-06-25T09:01:18.963Z,11.60
2017-06-25T09:03:45.658Z,11.25
2017-06-25T09:06:12.344Z,12.02
2017-06-25T09:08:39.072Z,10.60
2017-06-25T09:11:05.753Z,11.82
2017-06-25T09:13:32.472Z,12.15
2017-06-25T09:15:59.174Z,12.70
2017-06-25T09:18:25.892Z,12.93
2017-06-25T09:20:52.577Z,15.27
2017-06-25T09:23:19.261Z,14.52
2017-06-25T09:25:45.940Z,16.12
2017-06-25T09:28:12.652Z,14.20
2017-06-25T09:30:39.348Z,13.82
2017-06-25T09:33:06.031Z,15.15
2017-06-25T09:35:32.724Z,15.60
2017-06-25T09:37:59.404Z,12.02
2017-06-25T09:40:26.071Z,7.37
2017-06-25T09:42:52.748Z,4.87
2017-06-25T09:45:19.453Z,4.80
2017-06-25T09:47:46.128Z,4.55
2017-06-25T09:50:12.792Z,4.80
2017-06-25T09:52:39.455Z,5.87
2017-06-25T09:55:06.125Z,4.32
2017-06-25T09:57:32.788Z,4.43
2017-06-25T09:59:59.467Z,4.45
2017-06-25T10:02:26.142Z,4.85
2017-06-25T10:04:52.813Z,4.87
2017-06-25T10:07:19.477Z,5.10
2017-06-25T10:09:46.148Z,4.78
2017-06-25T10:12:12.852Z,4.78
2017-06-25T10:14:39.519Z,4.40
2017-06-25T10:17:06.228Z,4.47
2017-06-25T10:19:32.899Z,4.40
2017-06-25T10:21:59.575Z,4.62
2017-06-25T10:24:26.252Z,4.62
2017-06-25T10:26:52.928Z,4.35
2017-06-25T10:29:19.606Z,5.25
2017-06-25T10:31:46.268Z,4.77
2017-06-25T10:34:12.964Z,5.47
2017-06-25T10:36:39.660Z,5.37
2017-06-25T10:39:06.364Z,5.80
2017-06-25T10:41:33.052Z,6.22
2017-06-25T10:43:59.752Z,6.20
2017-06-25T10:46:26.443Z,6.80
2017-06-25T10:48:53.120Z,6.35
2017-06-25T10:51:19.796Z,7.05
2017-06-25T10:53:46.471Z,7.65
2017-06-25T10:56:13.141Z,8.43
2017-06-25T10:58:39.811Z,7.82
2017-06-25T11:01:06.505Z,7.50
2017-06-25T11:03:33.176Z,8.18
2017-06-25T11:05:59.901Z,7.65
2017-06-25T11:08:26.581Z,7.85
2017-06-25T11:10:53.294Z,8.85
2017-06-25T11:13:19.964Z,8.60
2017-06-25T11:15:46.638Z,9.02
2017-06-25T11:18:13.320Z,10.07
2017-06-25T11:20:40.001Z,11.33
2017-06-25T11:23:06.673Z,9.83
2017-06-25T11:25:33.344Z,10.47
2017-06-25T11:28:00.050Z,11.30
2017-06-25T11:30:26.731Z,11.50
2017-06-25T11:32:53.432Z,10.70
2017-06-25T11:35:20.113Z,10.60
2017-06-25T11:37:46.784Z,11.63
2017-06-25T11:40:13.452Z,10.67
2017-06-25T11:42:40.127Z,9.57
2017-06-25T11:45:06.808Z,9.97
2017-06-25T11:47:33.488Z,9.80
2017-06-25T11:50:00.157Z,8.20
2017-06-25T11:52:26.833Z,8.37
2017-06-25T11:54:53.749Z,9.60
2017-06-25T11:57:20.435Z,9.80
2017-06-25T11:59:47.113Z,9.37
2017-06-25T12:02:13.787Z,14.60
2017-06-25T12:04:40.455Z,12.13
2017-06-25T12:07:07.143Z,9.87
2017-06-25T12:09:33.812Z,9.90
2017-06-25T12:12:00.479Z,9.90
2017-06-25T12:14:27.158Z,10.60
2017-06-25T12:16:53.834Z,9.87
2017-06-25T12:19:20.540Z,10.60
2017-06-25T12:21:47.213Z,9.07
2017-06-25T12:24:13.884Z,9.40
2017-06-25T12:26:40.551Z,8.93
2017-06-25T12:29:07.252Z,9.10
2017-06-25T12:31:33.964Z,10.47
2017-06-25T12:34:00.661Z,9.00
2017-06-25T12:36:27.323Z,8.17
2017-06-25T12:38:54.004Z,9.37
2017-06-25T12:41:20.663Z,8.73
2017-06-25T12:43:47.332Z,8.50
2017-06-25T12:46:14.032Z,8.47
2017-06-25T12:48:40.701Z,8.87
2017-06-25T12:51:07.404Z,7.77
2017-06-25T12:53:34.086Z,8.53
2017-06-25T12:56:00.779Z,8.53
2017-06-25T12:58:27.519Z,7.73
2017-06-25T13:00:54.259Z,8.50
2017-06-25T13:03:20.933Z,9.00
2017-06-25T13:05:47.624Z,9.03
2017-06-25T13:08:14.291Z,8.50
2017-06-25T13:10:40.985Z,9.67
2017-06-25T13:13:07.676Z,9.40
2017-06-25T13:15:34.373Z,9.33
2017-06-25T13:18:01.057Z,10.53
2017-06-25T13:20:27.755Z,10.70
2017-06-25T13:22:54.423Z,7.60
2017-06-25T13:25:21.142Z,7.68
2017-06-25T13:27:47.820Z,8.13
2017-06-25T13:30:14.517Z,7.85
2017-06-25T13:32:41.196Z,9.02
2017-06-25T13:35:07.885Z,9.70
2017-06-25T13:37:34.579Z,9.48
2017-06-25T13:40:01.268Z,10.20
2017-06-25T13:42:27.975Z,10.93
2017-06-25T13:44:54.652Z,11.18
2017-06-25T13:47:21.353Z,11.80
2017-06-25T13:49:48.080Z,14.05
2017-06-25T13:52:14.763Z,12.90
2017-06-25T13:54:41.439Z,12.77
2017-06-25T13:57:08.112Z,12.82
2017-06-25T13:59:34.807Z,13.50
2017-06-25T14:02:01.490Z,13.70
2017-06-25T14:04:28.195Z,12.90
2017-06-25T14:06:54.884Z,13.20
2017-06-25T14:09:21.587Z,14.32
2017-06-25T14:11:48.263Z,13.93
2017-06-25T14:14:14.953Z,12.70
2017-06-25T14:16:41.648Z,14.45
2017-06-25T14:19:08.387Z,13.62
2017-06-25T14:21:35.084Z,13.18
2017-06-25T14:24:01.771Z,13.00
2017-06-25T14:26:28.492Z,12.57
2017-06-25T14:28:55.180Z,13.60
2017-06-25T14:31:21.871Z,14.83
2017-06-25T14:33:48.545Z,15.47
2017-06-25T14:36:15.221Z,15.50
2017-06-25T14:38:41.893Z,14.70
2017-06-25T14:41:08.567Z,16.43
2017-06-25T14:43:35.240Z,15.53
2017-06-25T14:46:01.916Z,16.60
2017-06-25T14:48:28.615Z,16.23
2017-06-25T14:50:55.291Z,14.67
2017-06-25T14:53:21.992Z,14.90
2017-06-25T14:55:48.674Z,13.50
2017-06-25T14:58:15.381Z,13.80
2017-06-25T15:00:42.056Z,13.87
2017-06-25T15:03:08.770Z,15.00
2017-06-25T15:05:35.670Z,15.00
2017-06-25T15:08:02.343Z,15.20
2017-06-25T15:10:29.016Z,15.03
2017-06-25T15:12:55.703Z,15.50
2017-06-25T15:15:22.399Z,17.55
2017-06-25T15:17:49.091Z,16.90
2017-06-25T15:20:15.772Z,19.45
2017-06-25T15:22:42.459Z,19.37
2017-06-25T15:25:09.148Z,18.65
2017-06-25T15:27:35.831Z,19.45
2017-06-25T15:30:02.512Z,18.10
2017-06-25T15:32:29.196Z,20.12
2017-06-25T15:34:55.876Z,19.05
2017-06-25T15:37:22.568Z,17.67
2017-06-25T15:39:49.244Z,19.42
2017-06-25T15:42:15.929Z,19.30
2017-06-25T15:44:42.608Z,18.50
2017-06-25T15:47:09.297Z,19.23
2017-06-25T15:49:36.018Z,18.02
2017-06-25T15:52:02.711Z,18.33
2017-06-25T15:54:29.420Z,18.62
2017-06-25T15:56:56.099Z,16.87
2017-06-25T15:59:22.806Z,17.30
2017-06-25T16:01:49.484Z,17.60
2017-06-25T16:04:16.188Z,14.70
2017-06-25T16:06:42.880Z,15.93
2017-06-25T16:09:09.591Z,15.15
2017-06-25T16:11:36.292Z,13.75
2017-06-25T16:14:03.001Z,13.70
2017-06-25T16:16:29.689Z,11.77
2017-06-25T16:18:56.376Z,11.65
2017-06-25T16:21:23.052Z,13.30
2017-06-25T16:23:49.735Z,11.70
2017-06-25T16:26:16.412Z,11.95
2017-06-25T16:28:43.085Z,14.25
2017-06-25T16:31:09.767Z,13.52
2017-06-25T16:33:36.441Z,14.27
2017-06-25T16:36:03.112Z,15.07
2017-06-25T16:38:29.814Z,13.27
2017-06-25T16:40:56.483Z,61.90
2017-06-25T16:43:23.160Z,17.25
2017-06-25T16:45:49.831Z,21.87
2017-06-25T16:48:16.503Z,20.95
2017-06-25T16:50:43.184Z,19.75
2017-06-25T16:53:09.857Z,17.92
2017-06-25T16:55:36.541Z,18.45
2017-06-25T16:58:03.217Z,18.65
2017-06-25T17:00:30.135Z,19.08
2017-06-25T17:02:56.884Z,19.02
2017-06-25T17:05:23.567Z,18.17
2017-06-25T17:07:50.243Z,18.23
2017-06-25T17:10:16.944Z,20.23
2017-06-25T17:12:43.636Z,18.75
2017-06-25T17:15:10.356Z,20.00
2017-06-25T17:17:37.031Z,19.65
2017-06-25T17:20:03.716Z,19.62
2017-06-25T17:22:30.388Z,21.10
2017-06-25T17:24:57.069Z,20.75
2017-06-25T17:27:23.749Z,22.20
2017-06-25T17:29:50.438Z,15.50
2017-06-25T17:32:17.112Z,19.83
2017-06-25T17:34:43.790Z,13.73
2017-06-25T17:37:10.492Z,12.48
2017-06-25T17:39:37.169Z,12.73
2017-06-25T17:42:03.898Z,11.25
2017-06-25T17:44:30.592Z,12.25
2017-06-25T17:46:57.273Z,11.52
2017-06-25T17:49:23.949Z,13.82
2017-06-25T17:51:50.620Z,12.60
2017-06-25T17:54:17.292Z,11.50
2017-06-25T17:56:43.964Z,11.90
2017-06-25T17:59:10.639Z,12.25
2017-06-25T18:01:37.328Z,11.82
2017-06-25T18:04:04.004Z,13.30
2017-06-25T18:06:30.681Z,12.88
2017-06-25T18:08:57.584Z,12.35
2017-06-25T18:11:24.260Z,11.90
2017-06-25T18:13:50.961Z,12.65
2017-06-25T18:16:17.633Z,11.55
2017-06-25T18:18:44.333Z,12.48
2017-06-25T18:21:11.013Z,13.02
2017-06-25T18:23:37.692Z,13.50
2017-06-25T18:26:04.360Z,13.23
2017-06-25T18:28:31.044Z,12.32
2017-06-25T18:30:57.728Z,13.68
2017-06-25T18:33:24.401Z,13.27
2017-06-25T18:35:51.075Z,14.23
2017-06-25T18:38:17.752Z,14.15
2017-06-25T18:40:44.433Z,14.02
2017-06-25T18:43:11.120Z,14.70
2017-06-25T18:45:37.794Z,15.43
2017-06-25T18:48:04.464Z,15.70
2017-06-25T18:50:31.169Z,15.50
2017-06-25T18:52:57.849Z,15.40
2017-06-25T18:55:24.552Z,14.85
2017-06-25T18:57:51.228Z,14.07
2017-06-25T19:00:17.928Z,15.02
2017-06-25T19:02:44.615Z,16.55
2017-06-25T19:05:11.320Z,16.37
2017-06-25T19:07:38.008Z,14.87
2017-06-25T19:10:04.708Z,16.62
2017-06-25T19:12:31.381Z,16.52
2017-06-25T19:14:58.085Z,15.45
2017-06-25T19:17:24.759Z,17.20
2017-06-25T19:19:51.456Z,16.10
2017-06-25T19:22:18.133Z,16.60
2017-06-25T19:24:44.812Z,17.23
2017-06-25T19:27:11.500Z,15.75
2017-06-25T19:29:38.172Z,16.73
2017-06-25T19:32:04.872Z,16.90
2017-06-25T19:34:31.554Z,18.58
2017-06-25T19:36:58.256Z,18.02
2017-06-25T19:39:24.936Z,17.35
2017-06-25T19:41:51.636Z,18.73
2017-06-25T19:44:18.316Z,18.75
2017-06-25T19:46:45.020Z,16.55
2017-06-25T19:49:11.704Z,16.25
2017-06-25T19:51:38.396Z,22.37
2017-06-25T19:54:05.064Z,18.73
2017-06-25T19:56:31.756Z,17.75
2017-06-25T19:58:58.421Z,18.08
2017-06-25T20:01:25.123Z,17.17
2017-06-25T20:03:51.798Z,18.60
2017-06-25T20:06:18.492Z,18.23
2017-06-25T20:08:45.159Z,20.55
2017-06-25T20:11:11.852Z,19.92
2017-06-25T20:13:38.519Z,18.70
2017-06-25T20:16:05.235Z,19.33
2017-06-25T20:18:31.904Z,17.95
2017-06-25T20:20:58.599Z,16.75
2017-06-25T20:23:25.276Z,18.33
2017-06-25T20:25:51.968Z,16.73
2017-06-25T20:28:18.635Z,16.67
2017-06-25T20:30:45.310Z,17.52
2017-06-25T20:33:11.979Z,17.40
2017-06-25T20:35:38.641Z,16.92
2017-06-25T20:38:05.316Z,19.23
2017-06-25T20:40:31.984Z,18.25
2017-06-25T20:42:58.656Z,20.70
2017-06-25T20:45:25.324Z,18.60
2017-06-25T20:47:52.011Z,19.75
2017-06-25T20:50:18.675Z,18.90
2017-06-25T20:52:45.346Z,21.95
2017-06-25T20:55:12.011Z,19.62
2017-06-25T20:57:38.704Z,21.48
2017-06-25T21:00:05.375Z,22.75
2017-06-25T21:02:32.063Z,20.12
2017-06-25T21:04:58.739Z,20.83
2017-06-25T21:07:25.438Z,20.98
2017-06-25T21:09:52.099Z,22.23
2017-06-25T21:12:18.792Z,20.10
2017-06-25T21:14:45.463Z,22.10
2017-06-25T21:17:12.165Z,25.35
2017-06-25T21:19:38.828Z,24.67
2017-06-25T21:22:05.520Z,22.45
2017-06-25T21:24:32.191Z,24.58
2017-06-25T21:26:58.883Z,25.15
2017-06-25T21:29:25.555Z,23.60
2017-06-25T21:31:52.248Z,23.50
2017-06-25T21:34:18.920Z,24.23
2017-06-25T21:36:45.621Z,25.10
2017-06-25T21:39:12.303Z,24.33
2017-06-25T21:41:38.991Z,24.95
2017-06-25T21:44:05.651Z,23.87
2017-06-25T21:46:32.323Z,24.95
2017-06-25T21:48:58.992Z,26.87
2017-06-25T21:51:25.660Z,25.52
2017-06-25T21:53:52.328Z,24.70
2017-06-25T21:56:18.999Z,25.65
2017-06-25T21:58:45.675Z,23.25
2017-06-25T22:01:12.347Z,25.37
2017-06-25T22:03:39.014Z,25.23
2017-06-25T22:06:05.679Z,22.85
2017-06-25T22:08:32.359Z,24.15
2017-06-25T22:10:59.064Z,26.00
2017-06-25T22:13:25.728Z,25.48
2017-06-25T22:15:52.396Z,23.60
2017-06-25T22:18:19.059Z,26.20
2017-06-25T22:20:45.723Z,26.75
2017-06-25T22:23:12.388Z,27.08
2017-06-25T22:25:39.049Z,23.70
2017-06-25T22:28:05.747Z,25.25
2017-06-25T22:30:32.415Z,26.77
2017-06-25T22:32:59.107Z,26.62
2017-06-25T22:35:26.011Z,23.92
2017-06-25T22:37:52.703Z,24.08
2017-06-25T22:40:19.376Z,25.35
2017-06-25T22:42:46.071Z,22.92
2017-06-25T22:45:12.747Z,22.52
2017-06-25T22:47:39.447Z,24.15
2017-06-25T22:50:06.115Z,22.95
2017-06-25T22:52:32.807Z,22.15
2017-06-25T22:54:59.477Z,24.20
2017-06-25T22:57:26.146Z,22.48
2017-06-25T22:59:52.814Z,21.20
2017-06-25T23:02:19.482Z,21.15
2017-06-25T23:04:46.159Z,22.60
2017-06-25T23:07:12.820Z,21.73
2017-06-25T23:09:39.488Z,23.35
2017-06-25T23:12:06.156Z,21.60
2017-06-25T23:14:32.820Z,22.50
2017-06-25T23:16:59.491Z,20.50
2017-06-25T23:19:26.159Z,19.98
2017-06-25T23:21:52.827Z,20.85
2017-06-25T23:24:19.492Z,20.85
2017-06-25T23:26:46.159Z,21.90
2017-06-25T23:29:12.829Z,20.33
2017-06-25T23:31:39.502Z,21.87
2017-06-25T23:34:06.171Z,19.60
2017-06-25T23:36:32.832Z,19.12
2017-06-25T23:38:59.507Z,21.20
2017-06-25T23:41:26.175Z,20.88
2017-06-25T23:43:52.844Z,21.27
2017-06-25T23:46:19.512Z,20.70
2017-06-25T23:48:46.177Z,21.15
2017-06-25T23:51:12.847Z,22.50
2017-06-25T23:53:39.515Z,22.55
2017-06-25T23:56:06.179Z,23.10
2017-06-25T23:58:32.872Z,21.17
